createdAt,value
2014-08-09T00:00:13.413Z,22.99
2014-08-09T00:01:17.712Z,23.04
2014-08-09T00:02:22.385Z,23.14
2014-08-09T00:03:27.388Z,23.25
2014-08-09T00:04:32.078Z,23.02
2014-08-09T00:05:37.065Z,22.88
2014-08-09T00:06:41.739Z,22.77
2014-08-09T00:07:47.022Z,22.85
2014-08-09T00:08:51.712Z,23.12
2014-08-09T00:09:56.995Z,22.94
2014-08-09T00:11:01.684Z,22.82
2014-08-09T00:12:06.654Z,22.93
2014-08-09T00:13:11.344Z,23.09
2014-08-09T00:14:16.628Z,23.19
2014-08-09T00:15:21.599Z,23.06
2014-08-09T00:16:26.585Z,23.04
2014-08-09T00:17:31.273Z,23.05
2014-08-09T00:18:36.262Z,23.1
2014-08-09T00:19:40.936Z,23.1
2014-08-09T00:20:45.624Z,23.05
2014-08-09T00:21:50.314Z,23.1
2014-08-09T00:22:55.004Z,23.34
2014-08-09T00:23:59.694Z,23.19
2014-08-09T00:25:04.368Z,23.13
2014-08-09T00:26:09.057Z,23.28
2014-08-09T00:27:13.746Z,23.19
2014-08-09T00:28:18.732Z,23.26
2014-08-09T00:29:23.422Z,23.3
2014-08-09T00:30:28.409Z,23.16
2014-08-09T00:31:33.396Z,23.11
2014-08-09T00:32:38.070Z,23.06
2014-08-09T00:33:42.760Z,22.9
2014-08-09T00:34:47.449Z,23.18
2014-08-09T00:35:52.732Z,23.28
2014-08-09T00:36:57.406Z,23.29
2014-08-09T00:38:02.392Z,23.32
2014-08-09T00:39:07.065Z,23.3
2014-08-09T00:40:11.756Z,23.38
2014-08-09T00:41:16.445Z,23.29
2014-08-09T00:42:21.134Z,23.25
2014-08-09T00:43:25.808Z,23.36
2014-08-09T00:44:30.794Z,23.16
2014-08-09T00:45:35.486Z,22.87
2014-08-09T00:46:40.160Z,22.97
2014-08-09T00:47:45.146Z,23.08
2014-08-09T00:48:49.835Z,22.94
2014-08-09T00:49:54.524Z,23.01
2014-08-09T00:50:59.199Z,22.9
2014-08-09T00:52:03.887Z,23.08
2014-08-09T00:53:08.874Z,23.16
2014-08-09T00:54:13.548Z,23.14
2014-08-09T00:55:18.237Z,23.06
2014-08-09T00:56:22.927Z,23.01
2014-08-09T00:57:27.913Z,23.08
2014-08-09T00:58:32.602Z,23.22
2014-08-09T00:59:37.888Z,23.13
2014-08-09T01:00:42.874Z,23.23
2014-08-09T01:01:47.564Z,23.16
2014-08-09T01:02:52.269Z,23.27
2014-08-09T01:03:57.255Z,23.13
2014-08-09T01:05:02.241Z,23.26
2014-08-09T01:06:06.930Z,23.36
2014-08-09T01:07:11.604Z,23.33
2014-08-09T01:08:16.294Z,23.19
2014-08-09T01:09:21.280Z,23.38
2014-08-09T01:10:25.969Z,23.5
2014-08-09T01:11:30.643Z,23.49
2014-08-09T01:12:35.333Z,23.3
2014-08-09T01:13:40.024Z,23.26
2014-08-09T01:14:44.698Z,23.11
2014-08-09T01:15:49.387Z,23.21
2014-08-09T01:16:54.076Z,23.25
2014-08-09T01:17:58.766Z,23.26
2014-08-09T01:19:04.034Z,23.4
2014-08-09T01:20:09.020Z,23.58
2014-08-09T01:21:14.007Z,23.4
2014-08-09T01:22:18.681Z,23.38
2014-08-09T01:23:23.369Z,23.3
2014-08-09T01:24:28.652Z,23.23
2014-08-09T01:25:33.343Z,23.13
2014-08-09T01:26:38.031Z,23.18
2014-08-09T01:27:42.706Z,23.18
2014-08-09T01:28:47.707Z,23.01
2014-08-09T01:29:52.382Z,22.76
2014-08-09T01:30:57.072Z,22.66
2014-08-09T01:32:01.761Z,22.63
2014-08-09T01:33:06.748Z,22.84
2014-08-09T01:34:11.437Z,22.7
2014-08-09T01:35:16.423Z,22.77
2014-08-09T01:36:21.410Z,22.66
2014-08-09T01:37:26.396Z,22.72
2014-08-09T01:38:31.086Z,22.81
2014-08-09T01:39:35.775Z,22.73
2014-08-09T01:40:40.451Z,22.79
2014-08-09T01:41:45.140Z,22.71
2014-08-09T01:42:49.830Z,22.78
2014-08-09T01:43:54.519Z,23.11
2014-08-09T01:44:59.193Z,23.02
2014-08-09T01:46:03.883Z,22.98
2014-08-09T01:47:08.572Z,23.1
2014-08-09T01:48:13.246Z,23.2
2014-08-09T01:49:18.233Z,23.21
2014-08-09T01:50:22.922Z,23.33
2014-08-09T01:51:27.596Z,23.4
2014-08-09T01:52:32.286Z,23.48
2014-08-09T01:53:37.272Z,23.49
2014-08-09T01:54:42.258Z,23.54
2014-08-09T01:55:46.932Z,23.61
2014-08-09T01:56:51.623Z,23.66
2014-08-09T01:57:56.608Z,23.56
2014-08-09T01:59:01.594Z,23.73
2014-08-09T02:00:06.284Z,23.82
2014-08-09T02:01:10.973Z,23.83
2014-08-09T02:02:15.647Z,23.7
2014-08-09T02:03:20.337Z,23.71
2014-08-09T02:04:25.026Z,23.61
2014-08-09T02:05:30.309Z,23.79
2014-08-09T02:06:34.998Z,23.69
2014-08-09T02:07:39.691Z,23.77
2014-08-09T02:08:44.379Z,23.7
2014-08-09T02:09:49.365Z,23.75
2014-08-09T02:10:54.055Z,23.82
2014-08-09T02:11:59.041Z,23.79
2014-08-09T02:13:03.725Z,23.8
2014-08-09T02:14:08.455Z,23.9
2014-08-09T02:15:12.498Z,23.99
2014-08-09T02:16:17.524Z,23.96
2014-08-09T02:17:22.238Z,23.95
2014-08-09T02:18:26.961Z,23.87
2014-08-09T02:19:30.978Z,23.83
2014-08-09T02:20:35.979Z,23.79
2014-08-09T02:21:40.684Z,23.66
2014-08-09T02:22:45.385Z,23.84
2014-08-09T02:23:50.081Z,23.88
2014-08-09T02:24:54.776Z,23.84
2014-08-09T02:25:59.455Z,23.8
2014-08-09T02:27:04.150Z,23.7
2014-08-09T02:28:09.140Z,23.73
2014-08-09T02:29:14.113Z,23.79
2014-08-09T02:30:18.805Z,23.68
2014-08-09T02:31:23.496Z,23.56
2014-08-09T02:32:28.188Z,23.68
2014-08-09T02:33:33.160Z,23.76
2014-08-09T02:34:37.850Z,23.66
2014-08-09T02:35:42.541Z,23.74
2014-08-09T02:36:47.231Z,23.78
2014-08-09T02:37:51.905Z,23.72
2014-08-09T02:38:56.892Z,23.6
2014-08-09T02:40:01.879Z,23.65
2014-08-09T02:41:06.865Z,23.76
2014-08-09T02:42:11.554Z,23.8
2014-08-09T02:43:16.541Z,23.88
2014-08-09T02:44:21.214Z,23.9
2014-08-09T02:45:26.201Z,23.82
2014-08-09T02:46:31.187Z,23.85
2014-08-09T02:47:36.189Z,23.8
2014-08-09T02:48:41.177Z,23.83
2014-08-09T02:49:45.867Z,23.87
2014-08-09T02:50:50.853Z,23.89
2014-08-09T02:51:55.543Z,23.91
2014-08-09T02:53:00.827Z,23.91
2014-08-09T02:54:05.501Z,23.83
2014-08-09T02:55:10.486Z,23.94
2014-08-09T02:56:15.473Z,23.81
2014-08-09T02:57:20.162Z,23.82
2014-08-09T02:58:24.837Z,23.82
2014-08-09T02:59:29.823Z,23.91
2014-08-09T03:00:35.106Z,23.96
2014-08-09T03:01:39.795Z,23.99
2014-08-09T03:02:45.079Z,23.93
2014-08-09T03:03:50.066Z,23.98
2014-08-09T03:04:55.052Z,24
2014-08-09T03:05:59.726Z,23.86
2014-08-09T03:07:04.415Z,23.9
2014-08-09T03:08:09.105Z,23.79
2014-08-09T03:09:13.779Z,23.77
2014-08-09T03:10:18.467Z,23.92
2014-08-09T03:11:23.454Z,23.94
2014-08-09T03:12:28.440Z,23.91
2014-08-09T03:13:33.114Z,24.02
2014-08-09T03:14:38.397Z,23.89
2014-08-09T03:15:43.386Z,23.96
2014-08-09T03:16:48.372Z,23.96
2014-08-09T03:17:53.358Z,23.9
2014-08-09T03:18:58.345Z,23.76
2014-08-09T03:20:03.330Z,23.82
2014-08-09T03:21:08.020Z,23.86
2014-08-09T03:22:13.006Z,23.97
2014-08-09T03:23:17.992Z,24
2014-08-09T03:24:22.979Z,24.02
2014-08-09T03:25:27.965Z,23.9
2014-08-09T03:26:32.951Z,23.76
2014-08-09T03:27:37.641Z,23.88
2014-08-09T03:28:42.629Z,23.89
2014-08-09T03:29:47.319Z,23.94
2014-08-09T03:30:52.008Z,23.82
2014-08-09T03:31:56.682Z,23.87
2014-08-09T03:33:01.371Z,23.7
2014-08-09T03:34:06.655Z,23.69
2014-08-09T03:35:11.641Z,23.7
2014-08-09T03:36:16.330Z,23.83
2014-08-09T03:37:21.302Z,23.78
2014-08-09T03:38:25.304Z,23.8
2014-08-09T03:39:30.290Z,23.81
2014-08-09T03:40:34.979Z,23.8
2014-08-09T03:41:39.653Z,23.58
2014-08-09T03:42:44.937Z,23.75
2014-08-09T03:43:49.939Z,23.8
2014-08-09T03:44:54.612Z,23.73
2014-08-09T03:45:59.302Z,23.69
2014-08-09T03:47:04.288Z,23.74
2014-08-09T03:48:08.962Z,23.68
2014-08-09T03:49:13.667Z,23.64
2014-08-09T03:50:18.358Z,23.57
2014-08-09T03:51:23.031Z,23.54
2014-08-09T03:52:27.720Z,23.35
2014-08-09T03:53:32.410Z,23.5
2014-08-09T03:54:37.396Z,23.58
2014-08-09T03:55:42.086Z,23.56
2014-08-09T03:56:47.072Z,23.54
2014-08-09T03:57:52.058Z,23.49
2014-08-09T03:58:57.047Z,23.48
2014-08-09T04:00:02.033Z,23.58
2014-08-09T04:01:07.019Z,23.62
2014-08-09T04:02:11.991Z,23.47
2014-08-09T04:03:16.978Z,23.48
2014-08-09T04:04:21.964Z,23.39
2014-08-09T04:05:26.950Z,23.34
2014-08-09T04:06:31.920Z,23.39
2014-08-09T04:07:36.906Z,23.24
2014-08-09T04:08:41.596Z,23.29
2014-08-09T04:09:46.285Z,23.23
2014-08-09T04:10:50.959Z,23.27
2014-08-09T04:11:56.244Z,23.41
2014-08-09T04:13:00.933Z,23.36
2014-08-09T04:14:05.607Z,23.38
2014-08-09T04:15:10.295Z,23.52
2014-08-09T04:16:14.985Z,23.52
2014-08-09T04:17:19.674Z,23.4
2014-08-09T04:18:24.348Z,23.24
2014-08-09T04:19:29.038Z,23.3
2014-08-09T04:20:33.727Z,23.27
2014-08-09T04:21:38.401Z,23.3
2014-08-09T04:22:43.091Z,23.27
2014-08-09T04:23:47.093Z,23.4
2014-08-09T04:24:52.063Z,23.54
2014-08-09T04:25:57.052Z,23.69
2014-08-09T04:27:01.741Z,23.5
2014-08-09T04:28:06.727Z,23.36
2014-08-09T04:29:11.714Z,23.48
2014-08-09T04:30:16.997Z,23.54
2014-08-09T04:31:21.985Z,23.69
2014-08-09T04:32:26.673Z,23.67
2014-08-09T04:33:31.348Z,23.59
2014-08-09T04:34:36.349Z,23.65
2014-08-09T04:35:41.023Z,23.67
2014-08-09T04:36:45.712Z,23.66
2014-08-09T04:37:50.402Z,23.63
2014-08-09T04:38:55.091Z,23.72
2014-08-09T04:39:59.781Z,23.91
2014-08-09T04:41:04.470Z,23.98
2014-08-09T04:42:09.144Z,23.86
2014-08-09T04:43:13.849Z,23.88
2014-08-09T04:44:18.836Z,23.8
2014-08-09T04:45:23.525Z,23.94
2014-08-09T04:46:28.496Z,23.72
2014-08-09T04:47:33.482Z,23.74
2014-08-09T04:48:38.469Z,23.69
2014-08-09T04:49:43.143Z,23.7
2014-08-09T04:50:48.129Z,23.72
2014-08-09T04:51:52.819Z,23.68
2014-08-09T04:52:57.492Z,23.64
2014-08-09T04:54:02.479Z,23.52
2014-08-09T04:55:07.168Z,23.6
2014-08-09T04:56:12.155Z,23.5
2014-08-09T04:57:16.829Z,23.72
2014-08-09T04:58:21.815Z,23.68
2014-08-09T04:59:26.801Z,23.67
2014-08-09T05:00:32.088Z,23.61
2014-08-09T05:01:37.073Z,23.62
2014-08-09T05:02:41.763Z,23.43
2014-08-09T05:03:46.453Z,23.3
2014-08-09T05:04:51.424Z,23.58
2014-08-09T05:05:56.113Z,23.65
2014-08-09T05:07:00.802Z,23.65
2014-08-09T05:08:05.788Z,23.65
2014-08-09T05:09:10.478Z,23.6
2014-08-09T05:10:15.761Z,23.53
2014-08-09T05:11:20.450Z,23.64
2014-08-09T05:12:25.140Z,23.69
2014-08-09T05:13:30.422Z,23.54
2014-08-09T05:14:35.112Z,23.46
2014-08-09T05:15:40.083Z,23.49
2014-08-09T05:16:44.774Z,23.4
2014-08-09T05:17:49.760Z,23.49
2014-08-09T05:18:54.450Z,23.49
2014-08-09T05:19:59.124Z,23.48
2014-08-09T05:21:03.813Z,23.52
2014-08-09T05:22:08.503Z,23.42
2014-08-09T05:23:13.473Z,23.38
2014-08-09T05:24:18.163Z,23.41
2014-08-09T05:25:23.149Z,23.45
2014-08-09T05:26:27.822Z,23.52
2014-08-09T05:27:32.527Z,23.45
2014-08-09T05:28:37.218Z,23.5
2014-08-09T05:29:41.517Z,23.54
2014-08-09T05:30:46.488Z,23.44
2014-08-09T05:31:51.178Z,23.38
2014-08-09T05:32:55.867Z,23.56
2014-08-09T05:34:00.854Z,23.5
2014-08-09T05:35:05.528Z,23.37
2014-08-09T05:36:10.811Z,23.48
2014-08-09T05:37:15.500Z,23.45
2014-08-09T05:38:20.173Z,23.52
2014-08-09T05:39:24.864Z,23.54
2014-08-09T05:40:29.553Z,23.46
2014-08-09T05:41:34.242Z,23.45
2014-08-09T05:42:38.931Z,23.57
2014-08-09T05:43:43.623Z,23.58
2014-08-09T05:44:48.297Z,23.49
2014-08-09T05:45:52.986Z,23.39
2014-08-09T05:46:57.972Z,23.42
2014-08-09T05:48:02.662Z,23.52
2014-08-09T05:49:07.350Z,23.46
2014-08-09T05:50:12.040Z,23.46
2014-08-09T05:51:17.027Z,23.47
2014-08-09T05:52:21.700Z,23.43
2014-08-09T05:53:26.688Z,23.46
2014-08-09T05:54:31.377Z,23.63
2014-08-09T05:55:35.675Z,23.68
2014-08-09T05:56:40.364Z,23.77
2014-08-09T05:57:45.040Z,24.42
2014-08-09T05:58:49.730Z,24.41
2014-08-09T05:59:54.716Z,24.42
2014-08-09T06:00:59.687Z,24.39
2014-08-09T06:02:04.673Z,24.32
2014-08-09T06:03:09.363Z,24.21
2014-08-09T06:04:14.349Z,24.28
2014-08-09T06:05:19.022Z,25.24
2014-08-09T06:06:23.712Z,24.9
2014-08-09T06:07:28.402Z,24.43
2014-08-09T06:08:33.092Z,24.51
2014-08-09T06:09:37.765Z,24.45
2014-08-09T06:10:42.454Z,24.34
2014-08-09T06:11:47.145Z,24.27
2014-08-09T06:12:51.835Z,23.92
2014-08-09T06:13:57.103Z,23.74
2014-08-09T06:15:01.792Z,23.93
2014-08-09T06:16:06.482Z,23.84
2014-08-09T06:17:11.452Z,23.9
2014-08-09T06:18:16.141Z,23.89
2014-08-09T06:19:20.830Z,24
2014-08-09T06:20:25.817Z,24.24
2014-08-09T06:21:31.100Z,24.52
2014-08-09T06:22:36.087Z,25.66
2014-08-09T06:23:41.073Z,27.54
2014-08-09T06:24:45.764Z,28.92
2014-08-09T06:25:50.438Z,30.84
2014-08-09T06:26:55.440Z,31.93
2014-08-09T06:28:00.129Z,33.35
2014-08-09T06:29:04.819Z,31.57
2014-08-09T06:30:09.805Z,32.33
2014-08-09T06:31:14.792Z,33.64
2014-08-09T06:32:19.481Z,35.33
2014-08-09T06:33:24.186Z,36.27
2014-08-09T06:34:28.876Z,36.67
2014-08-09T06:35:33.565Z,36.28
2014-08-09T06:36:38.255Z,35.81
2014-08-09T06:37:42.944Z,35.08
2014-08-09T06:38:47.946Z,34.21
2014-08-09T06:39:52.635Z,34.37
2014-08-09T06:40:57.622Z,32.82
2014-08-09T06:42:02.609Z,31.47
2014-08-09T06:43:07.594Z,33.6
2014-08-09T06:44:12.597Z,33.75
2014-08-09T06:45:17.287Z,32.58
2014-08-09T06:46:21.992Z,31.85
2014-08-09T06:47:26.978Z,31.32
2014-08-09T06:48:31.668Z,30.24
2014-08-09T06:49:36.357Z,29.61
2014-08-09T06:50:41.359Z,29.14
2014-08-09T06:51:46.050Z,28.87
2014-08-09T06:52:50.740Z,28.77
2014-08-09T06:53:55.742Z,28.37
2014-08-09T06:55:00.432Z,28.06
2014-08-09T06:56:05.120Z,27.74
2014-08-09T06:57:10.106Z,27.36
2014-08-09T06:58:14.796Z,27.1
2014-08-09T06:59:19.485Z,27.06
2014-08-09T07:00:24.472Z,27
2014-08-09T07:01:29.161Z,26.84
2014-08-09T07:02:33.851Z,26.65
2014-08-09T07:03:38.540Z,26.77
2014-08-09T07:04:43.230Z,26.76
2014-08-09T07:05:48.216Z,26.5
2014-08-09T07:06:52.906Z,26.23
2014-08-09T07:07:57.595Z,26.14
2014-08-09T07:09:02.285Z,26.23
2014-08-09T07:10:06.974Z,26.23
2014-08-09T07:11:11.945Z,26.31
2014-08-09T07:12:17.230Z,26.47
2014-08-09T07:13:21.920Z,26.49
2014-08-09T07:14:26.609Z,26.03
2014-08-09T07:15:31.596Z,26.08
2014-08-09T07:16:35.598Z,26.19
2014-08-09T07:17:40.288Z,26.42
2014-08-09T07:18:45.273Z,26.3
2014-08-09T07:19:49.964Z,26.19
2014-08-09T07:20:54.652Z,26.24
2014-08-09T07:21:59.327Z,26.46
2014-08-09T07:23:04.313Z,26.34
2014-08-09T07:24:09.299Z,26.51
2014-08-09T07:25:13.989Z,26.4
2014-08-09T07:26:18.287Z,26.46
2014-08-09T07:27:22.977Z,26.49
2014-08-09T07:28:27.963Z,26.34
2014-08-09T07:29:32.653Z,26.53
2014-08-09T07:30:37.638Z,26.64
2014-08-09T07:31:42.328Z,26.76
2014-08-09T07:32:47.019Z,26.65
2014-08-09T07:33:52.303Z,26.85
2014-08-09T07:34:57.289Z,26.94
2014-08-09T07:36:02.276Z,26.88
2014-08-09T07:37:06.950Z,27.06
2014-08-09T07:38:11.936Z,27.01
2014-08-09T07:39:16.626Z,26.89
2014-08-09T07:40:21.611Z,27.04
2014-08-09T07:41:26.302Z,27.36
2014-08-09T07:42:30.990Z,27.6
2014-08-09T07:43:35.681Z,27.48
2014-08-09T07:44:40.370Z,27.52
2014-08-09T07:45:45.044Z,27.56
2014-08-09T07:46:49.343Z,27.7
2014-08-09T07:47:54.033Z,27.84
2014-08-09T07:48:59.019Z,27.87
2014-08-09T07:50:04.005Z,27.8
2014-08-09T07:51:08.696Z,27.72
2014-08-09T07:52:13.369Z,27.56
2014-08-09T07:53:18.058Z,27.6
2014-08-09T07:54:23.045Z,27.74
2014-08-09T07:55:28.343Z,27.46
2014-08-09T07:56:33.033Z,27.37
2014-08-09T07:57:38.019Z,27.14
2014-08-09T07:58:42.709Z,26.96
2014-08-09T07:59:47.696Z,26.64
2014-08-09T08:00:52.684Z,26.48
2014-08-09T08:01:57.403Z,26.4
2014-08-09T08:03:02.093Z,26.2
2014-08-09T08:04:07.080Z,26.16
2014-08-09T08:05:11.769Z,26.23
2014-08-09T08:06:16.755Z,25.89
2014-08-09T08:07:21.741Z,25.94
2014-08-09T08:08:26.728Z,25.91
2014-08-09T08:09:31.416Z,25.9
2014-08-09T08:10:36.404Z,25.9
2014-08-09T08:11:41.078Z,25.98
2014-08-09T08:12:45.767Z,25.86
2014-08-09T08:13:50.457Z,25.86
2014-08-09T08:14:55.443Z,25.98
2014-08-09T08:16:00.726Z,26.04
2014-08-09T08:17:04.728Z,25.88
2014-08-09T08:18:09.418Z,25.79
2014-08-09T08:19:14.404Z,26.01
2014-08-09T08:20:19.094Z,25.87
2014-08-09T08:21:24.064Z,25.87
2014-08-09T08:22:28.756Z,25.95
2014-08-09T08:23:33.445Z,25.86
2014-08-09T08:24:38.135Z,25.81
2014-08-09T08:25:42.824Z,25.78
2014-08-09T08:26:47.498Z,25.91
2014-08-09T08:27:52.485Z,25.91
2014-08-09T08:28:57.471Z,26.07
2014-08-09T08:30:02.160Z,26.14
2014-08-09T08:31:06.850Z,26.01
2014-08-09T08:32:11.836Z,25.96
2014-08-09T08:33:16.510Z,26.1
2014-08-09T08:34:21.200Z,26.26
2014-08-09T08:35:25.889Z,26.24
2014-08-09T08:36:30.188Z,26.16
2014-08-09T08:37:35.471Z,26.15
2014-08-09T08:38:40.458Z,26.05
2014-08-09T08:39:45.741Z,26.2
2014-08-09T08:40:51.024Z,26.18
2014-08-09T08:41:56.011Z,26.18
2014-08-09T08:43:01.295Z,26.19
2014-08-09T08:44:05.983Z,25.97
2014-08-09T08:45:10.971Z,25.92
2014-08-09T08:46:15.956Z,25.94
2014-08-09T08:47:19.958Z,26.07
2014-08-09T08:48:24.649Z,25.98
2014-08-09T08:49:29.337Z,25.96
2014-08-09T08:50:34.012Z,26.01
2014-08-09T08:51:38.700Z,25.96
2014-08-09T08:52:43.391Z,25.98
2014-08-09T08:53:48.378Z,26.02
2014-08-09T08:54:53.068Z,26
2014-08-09T08:55:58.039Z,26.12
2014-08-09T08:57:03.025Z,25.84
2014-08-09T08:58:07.714Z,25.97
2014-08-09T08:59:12.404Z,26.09
2014-08-09T09:00:17.093Z,26.06
2014-08-09T09:01:21.767Z,26.07
2014-08-09T09:02:26.456Z,25.99
2014-08-09T09:03:31.145Z,26.02
2014-08-09T09:04:35.835Z,26.08
2014-08-09T09:05:40.806Z,26.31
2014-08-09T09:06:46.089Z,26.49
2014-08-09T09:07:50.780Z,26.39
2014-08-09T09:08:55.470Z,25.95
2014-08-09T09:10:00.441Z,25.99
2014-08-09T09:11:05.130Z,26.45
2014-08-09T09:12:09.820Z,26.5
2014-08-09T09:13:14.508Z,26.55
2014-08-09T09:14:19.199Z,26.63
2014-08-09T09:15:24.185Z,26.68
2014-08-09T09:16:28.874Z,26.66
2014-08-09T09:17:33.861Z,26.66
2014-08-09T09:18:38.847Z,26.8
2014-08-09T09:19:43.537Z,26.94
2014-08-09T09:20:48.243Z,26.82
2014-08-09T09:21:52.931Z,26.59
2014-08-09T09:22:57.918Z,26.76
2014-08-09T09:24:02.593Z,26.82
2014-08-09T09:25:07.281Z,26.88
2014-08-09T09:26:11.971Z,26.95
2014-08-09T09:27:16.661Z,26.86
2014-08-09T09:28:21.334Z,26.93
2014-08-09T09:29:26.040Z,26.78
2014-08-09T09:30:30.714Z,26.68
2014-08-09T09:31:35.700Z,26.63
2014-08-09T09:32:40.389Z,26.67
2014-08-09T09:33:45.375Z,26.82
2014-08-09T09:34:50.364Z,26.62
2014-08-09T09:35:55.053Z,26.6
2014-08-09T09:36:59.743Z,26.53
2014-08-09T09:38:04.415Z,26.51
2014-08-09T09:39:09.417Z,26.42
2014-08-09T09:40:14.107Z,26.22
2014-08-09T09:41:18.796Z,26.32
2014-08-09T09:42:23.783Z,26.21
2014-08-09T09:43:28.473Z,25.99
2014-08-09T09:44:33.162Z,26.2
2014-08-09T09:45:37.836Z,26.32
2014-08-09T09:46:42.525Z,26.39
2014-08-09T09:47:47.514Z,26.5
2014-08-09T09:48:52.500Z,26.35
2014-08-09T09:49:57.188Z,26.67
2014-08-09T09:51:02.176Z,26.71
2014-08-09T09:52:06.865Z,26.66
2014-08-09T09:53:11.554Z,26.73
2014-08-09T09:54:16.259Z,26.92
2014-08-09T09:55:21.245Z,26.89
2014-08-09T09:56:25.935Z,27.03
2014-08-09T09:57:30.624Z,26.86
2014-08-09T09:58:35.611Z,27.08
2014-08-09T09:59:40.300Z,27.09
2014-08-09T10:00:45.287Z,27.02
2014-08-09T10:01:49.978Z,27.15
2014-08-09T10:02:54.667Z,27.28
2014-08-09T10:03:59.654Z,27.28
2014-08-09T10:05:04.343Z,27.56
2014-08-09T10:06:09.330Z,27.46
2014-08-09T10:07:14.004Z,27.5
2014-08-09T10:08:18.693Z,27.65
2014-08-09T10:09:23.680Z,27.69
2014-08-09T10:10:28.369Z,27.58
2014-08-09T10:11:33.058Z,27.66
2014-08-09T10:12:38.044Z,27.93
2014-08-09T10:13:42.734Z,27.75
2014-08-09T10:14:47.721Z,27.63
2014-08-09T10:15:52.707Z,27.83
2014-08-09T10:16:57.678Z,27.87
2014-08-09T10:18:02.366Z,27.95
2014-08-09T10:19:07.651Z,27.89
2014-08-09T10:20:12.637Z,28.06
2014-08-09T10:21:17.326Z,28.36
2014-08-09T10:22:22.313Z,28.51
2014-08-09T10:23:27.002Z,28.65
2014-08-09T10:24:31.692Z,28.66
2014-08-09T10:25:36.381Z,28.78
2014-08-09T10:26:41.071Z,28.88
2014-08-09T10:27:46.073Z,28.95
2014-08-09T10:28:50.076Z,28.59
2014-08-09T10:29:55.063Z,28.63
2014-08-09T10:31:00.050Z,28.6
2014-08-09T10:32:04.738Z,28.76
2014-08-09T10:33:09.428Z,28.78
2014-08-09T10:34:14.118Z,28.79
2014-08-09T10:35:18.808Z,28.64
2014-08-09T10:36:23.496Z,28.61
2014-08-09T10:37:28.186Z,28.62
2014-08-09T10:38:33.172Z,28.56
2014-08-09T10:39:37.862Z,28.54
2014-08-09T10:40:41.864Z,28.4
2014-08-09T10:41:46.553Z,28.44
2014-08-09T10:42:51.244Z,28.41
2014-08-09T10:43:55.934Z,28.66
2014-08-09T10:45:00.920Z,28.62
2014-08-09T10:46:05.610Z,28.7
2014-08-09T10:47:10.596Z,28.57
2014-08-09T10:48:15.286Z,28.51
2014-08-09T10:49:19.975Z,28.6
2014-08-09T10:50:24.665Z,28.64
2014-08-09T10:51:29.370Z,28.72
2014-08-09T10:52:34.059Z,28.77
2014-08-09T10:53:38.750Z,28.9
2014-08-09T10:54:43.438Z,28.7
2014-08-09T10:55:48.129Z,28.62
2014-08-09T10:56:52.817Z,28.62
2014-08-09T10:57:57.508Z,28.66
2014-08-09T10:59:02.212Z,28.7
2014-08-09T11:00:07.198Z,28.74
2014-08-09T11:01:11.888Z,28.8
2014-08-09T11:02:16.577Z,28.71
2014-08-09T11:03:21.267Z,28.66
2014-08-09T11:04:26.253Z,28.84
2014-08-09T11:05:30.255Z,28.88
2014-08-09T11:06:34.945Z,28.44
2014-08-09T11:07:39.651Z,28.23
2014-08-09T11:08:44.653Z,28.52
2014-08-09T11:09:49.640Z,27.98
2014-08-09T11:10:54.329Z,28.14
2014-08-09T11:11:59.019Z,28.36
2014-08-09T11:13:03.708Z,28.17
2014-08-09T11:14:08.397Z,28.29
2014-08-09T11:15:13.384Z,28.48
2014-08-09T11:16:18.089Z,28.41
2014-08-09T11:17:22.778Z,28.37
2014-08-09T11:18:27.468Z,28.51
2014-08-09T11:19:32.455Z,28.5
2014-08-09T11:20:37.185Z,28.4
2014-08-09T11:21:41.915Z,28.31
2014-08-09T11:22:46.942Z,28.36
2014-08-09T11:23:51.712Z,28.36
2014-08-09T11:24:56.713Z,28.6
2014-08-09T11:26:01.417Z,28.58
2014-08-09T11:27:06.121Z,28.48
2014-08-09T11:28:10.137Z,28.25
2014-08-09T11:29:14.842Z,28.28
2014-08-09T11:30:19.536Z,28.28
2014-08-09T11:31:24.231Z,28.34
2014-08-09T11:32:29.222Z,28.55
2014-08-09T11:33:33.918Z,28.39
2014-08-09T11:34:38.612Z,28.48
2014-08-09T11:35:43.304Z,28.52
2014-08-09T11:36:48.292Z,28.74
2014-08-09T11:37:52.299Z,28.66
2014-08-09T11:38:56.991Z,28.62
2014-08-09T11:40:01.977Z,28.58
2014-08-09T11:41:06.668Z,28.4
2014-08-09T11:42:11.357Z,28.4
2014-08-09T11:43:16.048Z,28.42
2014-08-09T11:44:21.035Z,28.59
2014-08-09T11:45:26.021Z,28.41
2014-08-09T11:46:30.712Z,28.56
2014-08-09T11:47:35.698Z,28.64
2014-08-09T11:48:40.389Z,28.44
2014-08-09T11:49:45.078Z,28.76
2014-08-09T11:50:49.768Z,29.04
2014-08-09T11:51:54.456Z,29.16
2014-08-09T11:52:59.147Z,28.83
2014-08-09T11:54:03.836Z,29.07
2014-08-09T11:55:08.526Z,29.08
2014-08-09T11:56:13.215Z,29.27
2014-08-09T11:57:17.906Z,29.32
2014-08-09T11:58:22.594Z,29.43
2014-08-09T11:59:27.285Z,29.39
2014-08-09T12:00:31.974Z,29.29
2014-08-09T12:01:36.664Z,29.4
2014-08-09T12:02:40.963Z,29.46
2014-08-09T12:03:45.949Z,29.54
2014-08-09T12:04:50.638Z,29.25
2014-08-09T12:05:55.328Z,29.52
2014-08-09T12:07:00.330Z,29.64
2014-08-09T12:08:05.018Z,29.54
2014-08-09T12:09:09.709Z,29.43
2014-08-09T12:10:14.398Z,29.35
2014-08-09T12:11:19.087Z,29.06
2014-08-09T12:12:23.090Z,29.27
2014-08-09T12:13:27.779Z,29.6
2014-08-09T12:14:31.780Z,29.76
2014-08-09T12:15:36.470Z,29.9
2014-08-09T12:16:41.159Z,29.86
2014-08-09T12:17:45.849Z,29.86
2014-08-09T12:18:50.538Z,29.79
2014-08-09T12:19:55.230Z,29.85
2014-08-09T12:20:59.919Z,30.01
2014-08-09T12:22:04.609Z,29.97
2014-08-09T12:23:09.298Z,30.04
2014-08-09T12:24:13.987Z,30.02
2014-08-09T12:25:18.676Z,29.94
2014-08-09T12:26:23.366Z,29.87
2014-08-09T12:27:28.352Z,30.09
2014-08-09T12:28:33.339Z,30.29
2014-08-09T12:29:38.028Z,29.96
2014-08-09T12:30:42.718Z,29.6
2014-08-09T12:31:47.407Z,29.73
2014-08-09T12:32:52.099Z,29.83
2014-08-09T12:33:56.788Z,29.61
2014-08-09T12:35:01.478Z,29.63
2014-08-09T12:36:06.182Z,30.07
2014-08-09T12:37:11.169Z,30.12
2014-08-09T12:38:15.859Z,30.06
2014-08-09T12:39:20.548Z,29.78
2014-08-09T12:40:25.535Z,29.52
2014-08-09T12:41:30.521Z,29.24
2014-08-09T12:42:35.210Z,29.52
2014-08-09T12:43:40.198Z,29.28
2014-08-09T12:44:44.886Z,29.34
2014-08-09T12:45:49.577Z,29.38
2014-08-09T12:46:54.281Z,29.31
2014-08-09T12:47:58.970Z,29.05
2014-08-09T12:49:03.661Z,29.19
2014-08-09T12:50:08.943Z,29.08
2014-08-09T12:51:13.633Z,29.08
2014-08-09T12:52:18.619Z,28.86
2014-08-09T12:53:23.309Z,28.73
2014-08-09T12:54:27.998Z,28.86
2014-08-09T12:55:32.984Z,28.92
2014-08-09T12:56:37.690Z,28.74
2014-08-09T12:57:42.379Z,28.78
2014-08-09T12:58:47.364Z,29.01
2014-08-09T12:59:52.055Z,29.03
2014-08-09T13:00:56.746Z,28.66
2014-08-09T13:02:01.435Z,28.24
2014-08-09T13:03:06.124Z,28.41
2014-08-09T13:04:10.815Z,28.46
2014-08-09T13:05:15.503Z,28.53
2014-08-09T13:06:20.193Z,28.68
2014-08-09T13:07:24.882Z,28.88
2014-08-09T13:08:29.572Z,28.95
2014-08-09T13:09:34.277Z,29.26
2014-08-09T13:10:38.967Z,29.47
2014-08-09T13:11:43.952Z,29.6
2014-08-09T13:12:48.642Z,29.64
2014-08-09T13:13:53.333Z,29.54
2014-08-09T13:14:58.038Z,29.6
2014-08-09T13:16:03.025Z,29.65
2014-08-09T13:17:08.012Z,29.51
2014-08-09T13:18:12.700Z,29.4
2014-08-09T13:19:17.390Z,29.48
2014-08-09T13:20:22.392Z,29.35
2014-08-09T13:21:27.378Z,29.36
2014-08-09T13:22:32.365Z,29.46
2014-08-09T13:23:37.351Z,29.34
2014-08-09T13:24:42.336Z,29.28
2014-08-09T13:25:47.042Z,29.19
2014-08-09T13:26:51.731Z,29.24
2014-08-09T13:27:56.422Z,29.35
2014-08-09T13:29:01.112Z,29.31
2014-08-09T13:30:05.801Z,29.28
2014-08-09T13:31:10.492Z,29.35
2014-08-09T13:32:15.196Z,29.3
2014-08-09T13:33:19.887Z,29.32
2014-08-09T13:34:24.576Z,29.29
2014-08-09T13:35:29.265Z,29.38
2014-08-09T13:36:33.954Z,29.23
2014-08-09T13:37:38.645Z,29.3
2014-08-09T13:38:43.647Z,28.88
2014-08-09T13:39:48.337Z,28.84
2014-08-09T13:40:53.026Z,29.08
2014-08-09T13:41:58.012Z,29.24
2014-08-09T13:43:02.701Z,29.03
2014-08-09T13:44:07.703Z,29.17
2014-08-09T13:45:11.705Z,29.29
2014-08-09T13:46:16.395Z,29.31
2014-08-09T13:47:21.381Z,29.1
2014-08-09T13:48:26.071Z,28.6
2014-08-09T13:49:31.353Z,28.7
2014-08-09T13:50:36.058Z,28.8
2014-08-09T13:51:40.749Z,29.01
2014-08-09T13:52:45.454Z,29.26
2014-08-09T13:53:50.142Z,28.36
2014-08-09T13:54:54.834Z,28.57
2014-08-09T13:55:59.522Z,28.87
2014-08-09T13:57:04.212Z,28.45
2014-08-09T13:58:08.902Z,28.65